Weather History for Indianapolis, IN

Change the Weather History Date:

Sunday, March 3, 2013

  Actual Average (KEYE) Record (KEYE)
Temperature  
Mean Temperature 28 °F 37 °F  
Max Temperature 32 °F 46 °F 61 °F (2008)
Min Temperature 23 °F 29 °F 7 °F (2014)
Degree Days  
Heating Degree Days 38 28  
Month to date heating degree days 84  
Since 1 July heating degree days 4209  
Cooling Degree Days 0 0  
Month to date cooling degree days 0  
Year to date cooling degree days 0  
Moisture  
Dew Point 19 °F    
Average Humidity 70    
Maximum Humidity 86    
Minimum Humidity 52    
Precipitation  
Precipitation 0.00 in 0.07 in 0.91 in (2008)
Month to date precipitation 0.21  
Year to date precipitation 4.55  
Sea Level Pressure  
Sea Level Pressure 30.08 in    
Wind  
Wind Speed 8 mph (NW)    
Max Wind Speed 12 mph    
Max Gust Speed 17 mph    
Visibility 10 miles    
Events Snow    
T = Trace of Precipitation, MM = Missing Value Source: NWS Daily Summary

Daily Weather History Graph

Daily Weather History Graph

Search for Another Location

Airport:

Trip Planner

Search our weather history database for the weather conditions in past years. The results will help you decide how hot, cold, wet, or windy it might be!

Date:

Astronomy

Mar. 03, 2013 Rise Set
Actual Time 7:14 AM EST 6:39 PM EST
Civil Twilight 6:47 AM EST 7:06 PM EST
Nautical Twilight 6:16 AM EST 7:37 PM EST
Astronomical Twilight 5:45 AM EST 8:09 PM EST
Moon 12:17 AM EST (3/3) 10:29 AM EST (3/3)
Length of Visible Light 12h 18m
Length of Day
11h 24m
Waning Gibbous, 64% of the Moon is Illuminated
Mar 3
Waning Gibbous
Mar 4
Last Quarter
Mar 11
New
Mar 19
First Quarter
Mar 27
Full

Hourly Weather History & Observations

Time (EST) Temp. Windchill Dew Point Humidity Pressure Visibility Wind Dir Wind Speed Gust Speed Precip Events Conditions
12:15 AM 27.1 °F 16.9 °F 21.9 °F 81% 30.09 in 7.0 mi NNW 11.5 mph - N/A Snow Light Snow
12:35 AM 27.1 °F 16.9 °F 22.1 °F 81% 30.09 in 7.0 mi NW 11.5 mph - N/A Snow Light Snow
12:55 AM 27.0 °F 18.7 °F 21.6 °F 80% 30.09 in 10.0 mi NW 8.1 mph - N/A Snow Light Snow
1:15 AM 26.8 °F 17.7 °F 20.7 °F 78% 30.09 in 10.0 mi NW 9.2 mph - N/A   Overcast
1:35 AM 27.0 °F 18.7 °F 19.6 °F 74% 30.09 in 10.0 mi NW 8.1 mph - N/A   Overcast
1:55 AM 27.0 °F 19.5 °F 19.9 °F 75% 30.09 in 10.0 mi NW 6.9 mph - N/A   Overcast
2:35 AM 26.6 °F 16.8 °F 18.5 °F 71% 30.09 in 10.0 mi NW 10.4 mph - N/A   Overcast
2:55 AM 26.6 °F 17.5 °F 17.1 °F 67% 30.09 in 10.0 mi NW 9.2 mph - N/A   Overcast
3:15 AM 26.2 °F 17.8 °F 16.5 °F 67% 30.09 in 10.0 mi NW 8.1 mph - N/A Snow Light Snow
3:35 AM 25.7 °F 16.4 °F 17.4 °F 71% 30.08 in 7.0 mi NW 9.2 mph - N/A Snow Light Snow
3:55 AM 25.7 °F 18.0 °F 17.8 °F 72% 30.08 in 10.0 mi NW 6.9 mph - N/A Snow Light Snow
4:15 AM 25.7 °F 18.0 °F 17.8 °F 72% 30.08 in 10.0 mi NW 6.9 mph - N/A   Overcast
4:35 AM 25.7 °F 17.1 °F 17.6 °F 71% 30.07 in 10.0 mi NW 8.1 mph - N/A Snow Light Snow
4:55 AM 25.7 °F 20.1 °F 18.5 °F 74% 30.07 in 10.0 mi WNW 4.6 mph - N/A Snow Light Snow
5:15 AM 25.7 °F 19.0 °F 18.1 °F 73% 30.07 in 10.0 mi WNW 5.8 mph - N/A   Overcast
5:35 AM 25.7 °F 18.0 °F 18.3 °F 74% 30.07 in 10.0 mi NW 6.9 mph - N/A   Overcast
5:55 AM 25.7 °F 17.1 °F 18.1 °F 73% 30.07 in 10.0 mi NW 8.1 mph - N/A   Overcast
6:15 AM 25.7 °F 19.0 °F 18.5 °F 74% 30.08 in 10.0 mi NW 5.8 mph - N/A   Overcast
6:35 AM 25.5 °F 18.7 °F 18.5 °F 75% 30.08 in 10.0 mi WNW 5.8 mph - N/A   Overcast
6:55 AM 25.2 °F 17.3 °F 18.3 °F 75% 30.08 in 10.0 mi WNW 6.9 mph - N/A   Overcast
7:15 AM 24.8 °F 16.9 °F 18.1 °F 76% 30.09 in 10.0 mi WNW 6.9 mph - N/A   Overcast
7:55 AM 23.4 °F 16.2 °F 18.0 °F 80% 30.09 in 10.0 mi WNW 5.8 mph - N/A   Mostly Cloudy
8:15 AM 23.4 °F 15.2 °F 18.1 °F 80% 30.10 in 10.0 mi WNW 6.9 mph - N/A   Mostly Cloudy
8:35 AM 23.5 °F 16.4 °F 17.6 °F 78% 30.11 in 10.0 mi WNW 5.8 mph - N/A   Overcast
8:55 AM 24.1 °F 16.0 °F 16.7 °F 73% 30.11 in 10.0 mi NW 6.9 mph - N/A   Overcast
9:15 AM 24.6 °F 14.4 °F 16.5 °F 71% 30.11 in 10.0 mi NW 10.4 mph 17.3 mph N/A   Overcast
9:35 AM 25.0 °F 14.2 °F 16.3 °F 70% 30.11 in 10.0 mi NW 11.5 mph 16.1 mph N/A   Overcast
9:55 AM 25.7 °F 15.7 °F 16.5 °F 68% 30.11 in 10.0 mi WNW 10.4 mph - N/A   Overcast
10:15 AM 27.9 °F 19.1 °F 18.1 °F 67% 30.11 in 10.0 mi WNW 9.2 mph - N/A   Mostly Cloudy
10:35 AM 27.0 °F 18.0 °F 17.6 °F 68% 30.10 in 10.0 mi WNW 9.2 mph - N/A   Mostly Cloudy
10:55 AM 28.2 °F 20.2 °F 18.1 °F 66% 30.10 in 10.0 mi NW 8.1 mph - N/A   Mostly Cloudy
11:15 AM 28.4 °F 20.4 °F 17.4 °F 63% 30.11 in 10.0 mi NW 8.1 mph - N/A   Mostly Cloudy
11:35 AM 28.9 °F 21.1 °F 18.9 °F 66% 30.10 in 10.0 mi NW 8.1 mph - N/A   Mostly Cloudy
11:55 AM 28.6 °F 20.7 °F 18.1 °F 65% 30.10 in 7.0 mi NW 8.1 mph - N/A Snow Light Snow
12:15 PM 29.3 °F 24.3 °F 19.8 °F 68% 30.09 in 10.0 mi NW 4.6 mph - N/A Snow Light Snow
12:35 PM 29.7 °F 22.8 °F 19.0 °F 65% 30.09 in 10.0 mi WNW 6.9 mph - N/A   Mostly Cloudy
12:55 PM 30.2 °F 23.4 °F 18.9 °F 63% 30.08 in 10.0 mi West 6.9 mph - N/A   Overcast
1:15 PM 31.1 °F 22.4 °F 18.7 °F 60% 30.08 in 10.0 mi WNW 10.4 mph - N/A   Overcast
1:35 PM 30.4 °F 22.9 °F 18.0 °F 60% 30.07 in 10.0 mi NW 8.1 mph - N/A   Overcast
1:55 PM 30.9 °F 23.5 °F 17.2 °F 57% 30.07 in 10.0 mi NW 8.1 mph - N/A   Overcast
2:15 PM 30.6 °F 23.1 °F 17.6 °F 59% 30.07 in 10.0 mi NW 8.1 mph - N/A   Overcast
2:35 PM 31.8 °F 23.3 °F 17.4 °F 55% 30.06 in 10.0 mi West 10.4 mph - N/A   Overcast
2:55 PM 31.1 °F 23.7 °F 16.5 °F 55% 30.06 in 10.0 mi NW 8.1 mph - N/A   Overcast
3:35 PM 31.3 °F 23.9 °F 18.0 °F 58% 30.06 in 10.0 mi WNW 8.1 mph - N/A   Mostly Cloudy
3:55 PM 32.5 °F 24.2 °F 17.2 °F 53% 30.06 in 10.0 mi West 10.4 mph - N/A   Mostly Cloudy
4:35 PM 32.2 °F 25.0 °F 18.5 °F 57% 30.06 in 10.0 mi WNW 8.1 mph - N/A   Overcast
5:15 PM 32.0 °F 25.6 °F 16.7 °F 53% 30.06 in 10.0 mi WNW 6.9 mph - N/A   Overcast
5:35 PM 32.0 °F 26.4 °F 16.7 °F 53% 30.06 in 10.0 mi WNW 5.8 mph - N/A   Mostly Cloudy
5:55 PM 32.0 °F 27.5 °F 16.2 °F 52% 30.07 in 10.0 mi West 4.6 mph - N/A   Overcast
6:15 PM 31.6 °F 27.0 °F 17.1 °F 55% 30.06 in 10.0 mi West 4.6 mph - N/A   Overcast
6:35 PM 31.1 °F 25.4 °F 18.1 °F 59% 30.06 in 10.0 mi West 5.8 mph - N/A   Mostly Cloudy
6:55 PM 30.2 °F 26.7 °F 18.0 °F 60% 30.06 in 10.0 mi WNW 3.5 mph - N/A   Scattered Clouds
7:15 PM 29.5 °F 24.5 °F 18.1 °F 63% 30.07 in 10.0 mi West 4.6 mph - N/A   Scattered Clouds
7:35 PM 29.3 °F 25.6 °F 18.5 °F 64% 30.07 in 10.0 mi West 3.5 mph - N/A   Scattered Clouds
7:55 PM 28.4 °F - 18.5 °F 66% 30.07 in 10.0 mi Calm Calm - N/A   Clear
8:15 PM 28.2 °F - 19.0 °F 68% 30.07 in 10.0 mi Calm Calm - N/A   Clear
8:35 PM 28.2 °F - 20.8 °F 74% 30.07 in 10.0 mi Calm Calm - N/A   Clear
8:55 PM 27.5 °F 23.6 °F 20.5 °F 75% 30.08 in 10.0 mi North 3.5 mph - N/A   Clear
9:15 PM 27.3 °F 23.4 °F 20.7 °F 76% 30.08 in 10.0 mi NNW 3.5 mph - N/A   Clear
9:35 PM 26.6 °F - 20.7 °F 78% 30.08 in 10.0 mi Calm Calm - N/A   Clear
9:55 PM 25.7 °F - 19.2 °F 76% 30.08 in 10.0 mi Calm Calm - N/A   Clear
10:15 PM 25.3 °F - 20.1 °F 81% 30.08 in 10.0 mi Calm Calm - N/A   Clear
10:35 PM 24.8 °F - 20.5 °F 84% 30.08 in 10.0 mi Calm Calm - N/A   Clear
10:55 PM 24.8 °F - 20.8 °F 85% 30.08 in 10.0 mi Calm Calm - N/A   Clear
11:15 PM 24.3 °F - 20.3 °F 85% 30.08 in 10.0 mi Calm Calm - N/A   Clear
11:35 PM 23.9 °F - 20.3 °F 86% 30.08 in 10.0 mi Calm Calm - N/A   Clear
11:55 PM 23.9 °F - 20.3 °F 86% 30.09 in 10.0 mi Calm Calm - N/A   Clear